< Typhoon 198113 1981 Season Typhoon 198115 >
Typhoon 198114 (SUSAN)
General InformationTrack Information on Google MapsDetailed Wind InformationList of All Images || Disaster Info.ResourceGoogle EarthGE AnimationAtom FeedGeoJSON
Detalied Best Track (Time Zone = UTC)
Year Month Day Hour Lat. Long. Pressure (hPa) Wind (kt) Class Image Chart
1981 8 6 12 21.0 164.0 1004 0 2 Image Chart
1981 8 6 18 21.3 164.2 998 0 2 Image Chart
1981 8 7 00 21.5 164.4 996 0 2 Image Chart
1981 8 7 06 21.7 164.6 994 0 2 Image Chart
1981 8 7 12 22.0 164.8 994 0 2 Image Chart
1981 8 7 18 22.3 165.1 994 0 2 Image Chart
1981 8 8 00 22.6 165.4 992 40 3 Image Chart
1981 8 8 06 23.9 165.4 992 40 3 Image Chart
1981 8 8 12 25.2 165.0 985 50 4 Image Chart
1981 8 8 18 26.6 164.7 985 50 4 Image Chart
1981 8 9 00 28.0 164.4 985 50 4 Image Chart
1981 8 9 06 29.1 164.0 985 50 4 Image Chart
1981 8 9 12 30.0 163.2 985 50 4 Image Chart
1981 8 9 18 30.7 162.3 985 50 4 Image Chart
1981 8 10 00 31.2 161.4 985 55 4 Image Chart
1981 8 10 06 31.6 161.3 980 60 4 Image Chart
1981 8 10 12 32.1 161.3 980 60 4 Image Chart
1981 8 10 18 32.4 161.0 980 55 4 Image Chart
1981 8 11 00 32.6 160.0 980 50 4 Image Chart
1981 8 11 06 33.0 159.8 980 50 4 Image Chart
1981 8 11 12 33.5 159.3 980 50 4 Image Chart
1981 8 11 18 34.0 158.2 985 50 4 Image Chart
1981 8 12 00 34.6 157.0 985 45 3 Image Chart
1981 8 12 06 35.0 156.2 990 45 3 Image Chart
1981 8 12 12 35.5 155.5 992 35 3 Image Chart
1981 8 12 18 36.0 155.0 994 35 3 Image Chart
1981 8 13 00 36.7 154.7 998 0 2 Image Chart
1981 8 13 06 37.3 154.3 1000 0 2 Image Chart
1981 8 13 12 38.2 154.0 1002 0 2 Image Chart
1981 8 13 18 39.5 153.6 1004 0 2 Image Chart
1981 8 14 00 41.0 153.2 1006 0 2 Image Chart
1981 8 14 06 42.5 154.0 1006 0 2 Image Chart
1981 8 14 12 44.0 156.0 1006 0 2 Image Chart
1981 8 14 18 45.5 158.5 1006 0 6 Image Chart
1981 8 15 00 47.5 161.5 1006 0 6 Image Chart
Japan Meteorological Agency Best Track Data | Correction Date : 1992-10-21
< Typhoon 198113 1981 Season Typhoon 198115 >

Help